Event-Kalender
Terminkalender Drucken Email help
Jahresansicht Monatsansicht Wochenansicht Heute Suche Zum ausgwählten Monat wechseln
Termine für
Samstag, 26. August 2017



JEvents v1.5.5e   Copyright © 2006-2011

Zufallsbild

Aktuelle Termine

Mo Di Mi Do Fr Sa So
31 1 2 3 4 5 6
7 8 9 10 11 12 13
14 15 16 17 18 19 20
21 22 23 24 25 26 27
28 29 30 31 1 2 3

Pilotenwetter

[source: ADDS]
METAR
EDDH 201420Z 15014KT 9999 -RA FEW018 BKN070 14/13 Q1009 TEMPO RA =
TAF
TAF EDDH 201100Z 2012/2118 18008KT 9999 SCT040 PROB40 TEMPO 2012/2016 RA PROB30 TEMPO 2012/2016 20015G25KT 4500 TSRA BKN015CB BECMG 2021/2023 BKN012 PROB30 TEMPO 2023/2107 4000 -RA BKN007 BECMG 2107/2109 SCT030 =